createdAt,value
2019-02-25T00:00:48.896Z,2.60
2019-02-25T00:03:18.341Z,3.23
2019-02-25T00:05:47.768Z,3.10
2019-02-25T00:08:17.209Z,3.00
2019-02-25T00:10:46.645Z,2.67
2019-02-25T00:13:16.078Z,2.80
2019-02-25T00:15:45.504Z,2.67
2019-02-25T00:18:15.223Z,3.23
2019-02-25T00:20:44.933Z,2.67
2019-02-25T00:23:14.379Z,3.03
2019-02-25T00:25:43.802Z,3.13
2019-02-25T00:28:13.250Z,3.00
2019-02-25T00:30:42.692Z,2.80
2019-02-25T00:33:12.128Z,3.03
2019-02-25T00:35:41.554Z,3.00
2019-02-25T00:38:10.994Z,2.57
2019-02-25T00:40:40.465Z,2.87
2019-02-25T00:43:09.863Z,2.63
2019-02-25T00:45:39.291Z,3.00
2019-02-25T00:48:08.955Z,3.23
2019-02-25T00:50:38.389Z,2.60
2019-02-25T00:53:07.841Z,3.00
2019-02-25T00:55:37.274Z,2.87
2019-02-25T00:58:06.714Z,2.80
2019-02-25T01:00:36.817Z,2.93
2019-02-25T01:03:06.789Z,3.00
2019-02-25T01:05:36.303Z,2.60
2019-02-25T01:08:07.806Z,2.73
2019-02-25T01:10:37.388Z,2.80
2019-02-25T01:13:06.827Z,2.83
2019-02-25T01:15:36.256Z,2.90
2019-02-25T01:18:05.697Z,3.20
2019-02-25T01:20:35.125Z,3.43
2019-02-25T01:23:04.558Z,3.00
2019-02-25T01:25:33.999Z,2.93
2019-02-25T01:28:03.432Z,2.83
2019-02-25T01:30:32.874Z,2.67
2019-02-25T01:33:02.301Z,2.93
2019-02-25T01:35:31.745Z,2.97
2019-02-25T01:38:01.175Z,3.37
2019-02-25T01:40:30.610Z,3.37
2019-02-25T01:43:00.039Z,2.40
2019-02-25T01:45:29.482Z,2.87
2019-02-25T01:47:58.912Z,2.53
2019-02-25T01:50:28.349Z,2.83
2019-02-25T01:52:57.781Z,2.83
2019-02-25T01:55:29.001Z,3.37
2019-02-25T01:57:58.418Z,2.63
2019-02-25T02:00:27.927Z,3.37
2019-02-25T02:02:57.675Z,3.27
2019-02-25T02:05:27.108Z,2.60
2019-02-25T02:07:57.210Z,2.63
2019-02-25T02:10:26.644Z,2.93
2019-02-25T02:12:56.077Z,2.77
2019-02-25T02:15:25.511Z,2.53
2019-02-25T02:17:54.948Z,2.90
2019-02-25T02:20:24.631Z,3.00
2019-02-25T02:22:54.056Z,2.73
2019-02-25T02:25:23.500Z,2.70
2019-02-25T02:27:52.934Z,3.00
2019-02-25T02:30:23.217Z,2.40
2019-02-25T02:32:52.637Z,2.80
2019-02-25T02:35:22.075Z,2.83
2019-02-25T02:37:51.514Z,2.27
2019-02-25T02:40:20.978Z,2.73
2019-02-25T02:43:01.038Z,2.73
2019-02-25T02:45:34.954Z,2.90
2019-02-25T02:48:17.639Z,2.60
2019-02-25T02:50:47.091Z,2.80
2019-02-25T02:53:16.511Z,2.90
2019-02-25T02:55:45.950Z,3.10
2019-02-25T02:58:15.383Z,2.60
2019-02-25T03:00:44.822Z,2.93
2019-02-25T03:03:14.253Z,2.67
2019-02-25T03:05:43.711Z,2.60
2019-02-25T03:08:13.128Z,2.67
2019-02-25T03:10:42.567Z,2.93
2019-02-25T03:13:11.999Z,2.67
2019-02-25T03:15:41.437Z,2.70
2019-02-25T03:18:10.864Z,2.60
2019-02-25T03:20:40.308Z,2.73
2019-02-25T03:23:09.740Z,2.70
2019-02-25T03:25:39.170Z,2.80
2019-02-25T03:28:08.619Z,2.80
2019-02-25T03:30:38.048Z,2.63
2019-02-25T03:33:07.489Z,2.40
2019-02-25T03:35:36.900Z,2.60
2019-02-25T03:38:06.408Z,2.50
2019-02-25T03:40:35.840Z,2.67
2019-02-25T03:43:05.283Z,2.67
2019-02-25T03:45:34.710Z,3.00
2019-02-25T03:48:04.147Z,2.47
2019-02-25T03:50:33.579Z,2.50
2019-02-25T03:53:03.018Z,2.50
2019-02-25T03:55:32.460Z,2.90
2019-02-25T03:58:01.890Z,2.70
2019-02-25T04:00:31.324Z,2.50
2019-02-25T04:03:00.768Z,2.70
2019-02-25T04:05:30.202Z,2.93
2019-02-25T04:07:59.704Z,2.70
2019-02-25T04:10:29.137Z,2.70
2019-02-25T04:12:58.566Z,2.63
2019-02-25T04:15:29.635Z,2.70
2019-02-25T04:17:59.084Z,2.77
2019-02-25T04:20:28.511Z,2.27
2019-02-25T04:22:57.951Z,3.13
2019-02-25T04:25:27.381Z,2.83
2019-02-25T04:27:56.825Z,2.73
2019-02-25T04:30:26.253Z,2.80
2019-02-25T04:32:55.703Z,2.80
2019-02-25T04:35:25.131Z,2.63
2019-02-25T04:37:54.570Z,2.73
2019-02-25T04:40:24.008Z,2.80
2019-02-25T04:42:53.445Z,2.80
2019-02-25T04:45:22.869Z,2.70
2019-02-25T04:47:52.313Z,2.77
2019-02-25T04:50:21.768Z,2.67
2019-02-25T04:52:51.210Z,3.10
2019-02-25T04:55:20.643Z,2.63
2019-02-25T04:57:50.087Z,2.80
2019-02-25T05:00:24.776Z,2.77
2019-02-25T05:02:54.215Z,2.57
2019-02-25T05:05:23.662Z,2.70
2019-02-25T05:07:53.093Z,2.47
2019-02-25T05:10:22.519Z,2.77
2019-02-25T05:12:56.334Z,3.07
2019-02-25T05:15:27.295Z,3.30
2019-02-25T05:17:56.733Z,2.60
2019-02-25T05:20:26.166Z,3.17
2019-02-25T05:22:55.606Z,3.20
2019-02-25T05:25:25.703Z,3.63
2019-02-25T05:27:55.146Z,3.07
2019-02-25T05:30:24.576Z,3.00
2019-02-25T05:32:54.017Z,3.23
2019-02-25T05:35:23.450Z,3.20
2019-02-25T05:37:52.905Z,3.73
2019-02-25T05:40:22.499Z,3.37
2019-02-25T05:42:51.940Z,3.30
2019-02-25T05:45:21.445Z,3.70
2019-02-25T05:47:50.888Z,3.57
2019-02-25T05:50:23.436Z,3.60
2019-02-25T05:52:52.878Z,3.37
2019-02-25T05:55:22.323Z,3.23
2019-02-25T05:57:51.777Z,4.13
2019-02-25T06:00:29.322Z,3.83
2019-02-25T06:02:58.766Z,3.27
2019-02-25T06:05:28.201Z,3.50
2019-02-25T06:07:57.643Z,3.80
2019-02-25T06:10:27.075Z,4.10
2019-02-25T06:12:56.518Z,3.27
2019-02-25T06:15:25.953Z,3.47
2019-02-25T06:17:55.388Z,3.27
2019-02-25T06:20:24.832Z,4.17
2019-02-25T06:22:54.267Z,3.53
2019-02-25T06:25:23.710Z,3.53
2019-02-25T06:27:53.138Z,3.70
2019-02-25T06:30:24.390Z,4.50
2019-02-25T06:32:53.888Z,4.20
2019-02-25T06:35:23.324Z,3.90
2019-02-25T06:37:52.761Z,4.03
2019-02-25T06:40:22.666Z,4.07
2019-02-25T06:42:52.078Z,3.60
2019-02-25T06:45:30.974Z,4.40
2019-02-25T06:48:00.099Z,3.07
2019-02-25T06:50:30.368Z,3.77
2019-02-25T06:52:59.806Z,4.30
2019-02-25T06:55:29.240Z,3.77
2019-02-25T06:57:58.686Z,4.10
2019-02-25T07:00:28.132Z,3.77
2019-02-25T07:02:57.576Z,4.27
2019-02-25T07:05:46.721Z,4.03
2019-02-25T07:08:17.802Z,3.50
2019-02-25T07:11:03.927Z,3.90
2019-02-25T07:13:47.029Z,3.87
2019-02-25T07:16:27.122Z,4.10
2019-02-25T07:19:03.903Z,4.60
2019-02-25T07:21:36.083Z,3.90
2019-02-25T07:24:19.200Z,4.10
2019-02-25T07:26:50.273Z,3.97
2019-02-25T07:29:22.436Z,4.13
2019-02-25T07:31:53.511Z,4.30
2019-02-25T07:34:27.563Z,4.27
2019-02-25T07:36:58.635Z,4.47
2019-02-25T07:39:29.717Z,4.80
2019-02-25T07:42:12.620Z,4.00
2019-02-25T07:44:58.415Z,3.67
2019-02-25T07:47:32.296Z,4.27
2019-02-25T07:50:03.383Z,4.27
2019-02-25T07:52:52.768Z,5.00
2019-02-25T07:55:42.215Z,4.53
2019-02-25T07:58:29.695Z,4.70
2019-02-25T08:01:00.777Z,5.20
2019-02-25T08:03:34.870Z,4.70
2019-02-25T08:06:15.095Z,5.30
2019-02-25T08:09:02.217Z,4.43
2019-02-25T08:11:48.546Z,4.50
2019-02-25T08:14:35.695Z,4.60
2019-02-25T08:17:22.678Z,5.13
2019-02-25T08:19:53.756Z,4.40
2019-02-25T08:22:33.469Z,4.90
2019-02-25T08:25:05.331Z,5.10
2019-02-25T08:27:34.524Z,4.70
2019-02-25T08:30:15.118Z,4.80
2019-02-25T08:32:46.192Z,5.30
2019-02-25T08:35:48.485Z,4.77
2019-02-25T08:38:25.241Z,5.43
2019-02-25T08:41:01.814Z,5.20
2019-02-25T08:43:44.515Z,5.40
2019-02-25T08:46:19.650Z,5.37
2019-02-25T08:48:56.864Z,5.37
2019-02-25T08:51:26.310Z,5.90
2019-02-25T08:53:55.748Z,4.83
2019-02-25T08:56:25.187Z,5.17
2019-02-25T08:58:54.619Z,4.97
2019-02-25T09:01:24.079Z,5.50
2019-02-25T09:03:53.505Z,4.93
2019-02-25T09:06:22.964Z,5.23
2019-02-25T09:08:52.397Z,4.70
2019-02-25T09:11:21.843Z,4.90
2019-02-25T09:13:51.272Z,4.80
2019-02-25T09:16:20.722Z,4.23
2019-02-25T09:18:50.160Z,4.47
2019-02-25T09:21:19.595Z,4.03
2019-02-25T09:23:49.031Z,4.50
2019-02-25T09:26:18.476Z,3.80
2019-02-25T09:28:49.800Z,4.70
2019-02-25T09:31:19.297Z,4.30
2019-02-25T09:33:48.945Z,4.40
2019-02-25T09:36:18.378Z,4.33
2019-02-25T09:38:47.819Z,5.00
2019-02-25T09:41:17.245Z,4.20
2019-02-25T09:43:46.696Z,4.70
2019-02-25T09:46:16.132Z,3.67
2019-02-25T09:48:45.565Z,3.50
2019-02-25T09:51:15.007Z,3.80
2019-02-25T09:53:44.449Z,3.70
2019-02-25T09:56:13.874Z,4.47
2019-02-25T09:58:43.315Z,3.27
2019-02-25T10:01:12.810Z,3.17
2019-02-25T10:03:42.261Z,2.13
2019-02-25T10:06:12.972Z,2.27
2019-02-25T10:08:42.518Z,2.30
2019-02-25T10:11:11.954Z,2.43
2019-02-25T10:13:41.397Z,1.90
2019-02-25T10:16:10.826Z,1.87
2019-02-25T10:18:40.264Z,1.90
2019-02-25T10:21:09.700Z,1.77
2019-02-25T10:23:40.507Z,1.70
2019-02-25T10:26:09.967Z,1.60
2019-02-25T10:28:39.422Z,1.70
2019-02-25T10:31:08.857Z,1.70
2019-02-25T10:33:38.301Z,1.87
2019-02-25T10:36:07.732Z,1.90
2019-02-25T10:38:37.608Z,1.87
2019-02-25T10:41:07.085Z,1.87
2019-02-25T10:43:36.663Z,1.50
2019-02-25T10:46:06.992Z,1.60
2019-02-25T10:48:36.935Z,2.00
2019-02-25T10:51:09.206Z,2.50
2019-02-25T10:53:38.322Z,1.57
2019-02-25T10:56:14.348Z,1.60
2019-02-25T10:58:43.861Z,1.60
2019-02-25T11:01:17.489Z,1.43
2019-02-25T11:03:45.611Z,1.20
2019-02-25T11:06:15.630Z,1.30
2019-02-25T11:08:46.720Z,1.50
2019-02-25T11:11:18.856Z,1.70
2019-02-25T11:13:48.974Z,1.60
2019-02-25T11:16:20.374Z,1.60
2019-02-25T11:18:50.661Z,1.57
2019-02-25T11:21:20.768Z,1.80
2019-02-25T11:23:51.678Z,1.83
2019-02-25T11:26:21.382Z,1.70
2019-02-25T11:28:51.065Z,2.40
2019-02-25T11:31:24.123Z,1.60
2019-02-25T11:33:51.995Z,2.00
2019-02-25T11:36:22.085Z,2.60
2019-02-25T11:38:51.634Z,1.97
2019-02-25T11:41:21.078Z,2.70
2019-02-25T11:43:52.839Z,1.83
2019-02-25T11:46:21.687Z,2.10
2019-02-25T11:48:51.134Z,1.40
2019-02-25T11:51:20.594Z,1.37
2019-02-25T11:53:50.047Z,1.57
2019-02-25T11:56:19.482Z,1.90
2019-02-25T11:58:48.949Z,1.40
2019-02-25T12:01:18.391Z,1.23
2019-02-25T12:03:47.839Z,1.63
2019-02-25T12:06:17.277Z,1.90
2019-02-25T12:08:46.719Z,1.50
2019-02-25T12:11:16.169Z,1.70
2019-02-25T12:13:45.612Z,1.50
2019-02-25T12:16:15.062Z,1.60
2019-02-25T12:18:44.512Z,1.13
2019-02-25T12:21:15.478Z,1.20
2019-02-25T12:23:44.937Z,1.47
2019-02-25T12:26:14.383Z,1.30
2019-02-25T12:28:43.892Z,1.47
2019-02-25T12:31:15.464Z,1.70
2019-02-25T12:33:44.903Z,1.07
2019-02-25T12:36:14.350Z,1.30
2019-02-25T12:38:43.789Z,1.50
2019-02-25T12:41:13.240Z,1.50
2019-02-25T12:43:42.689Z,1.57
2019-02-25T12:46:12.126Z,1.60
2019-02-25T12:48:41.569Z,1.70
2019-02-25T12:51:11.022Z,1.50
2019-02-25T12:53:40.466Z,1.63
2019-02-25T12:56:09.922Z,1.37
2019-02-25T12:58:39.368Z,2.17
2019-02-25T13:01:09.130Z,1.77
2019-02-25T13:03:38.640Z,1.93
2019-02-25T13:06:08.093Z,2.00
2019-02-25T13:08:37.536Z,1.23
2019-02-25T13:11:06.996Z,1.67
2019-02-25T13:13:36.431Z,2.20
2019-02-25T13:16:05.895Z,1.90
2019-02-25T13:18:35.340Z,1.80
2019-02-25T13:21:04.790Z,1.73
2019-02-25T13:23:34.232Z,1.70
2019-02-25T13:26:07.401Z,1.57
2019-02-25T13:28:34.842Z,1.50
2019-02-25T13:31:05.676Z,1.90
2019-02-25T13:33:35.456Z,1.37
2019-02-25T13:36:09.612Z,1.37
2019-02-25T13:38:39.048Z,1.50
2019-02-25T13:41:08.505Z,1.40
2019-02-25T13:43:37.952Z,1.27
2019-02-25T13:46:07.401Z,1.80
2019-02-25T13:48:36.838Z,1.60
2019-02-25T13:51:06.293Z,1.90
2019-02-25T13:53:35.738Z,1.40
2019-02-25T13:56:05.754Z,2.20
2019-02-25T13:58:35.673Z,1.30
2019-02-25T14:01:05.586Z,2.00
2019-02-25T14:03:35.022Z,1.83
2019-02-25T14:06:06.393Z,1.50
2019-02-25T14:08:35.825Z,1.87
2019-02-25T14:11:05.324Z,1.50
2019-02-25T14:13:34.789Z,1.87
2019-02-25T14:16:04.313Z,1.50
2019-02-25T14:18:33.768Z,1.73
2019-02-25T14:21:03.375Z,1.93
2019-02-25T14:23:32.811Z,2.10
2019-02-25T14:26:02.271Z,1.70
2019-02-25T14:28:31.701Z,1.60
2019-02-25T14:31:01.244Z,1.83
2019-02-25T14:33:30.677Z,1.93
2019-02-25T14:36:00.309Z,2.10
2019-02-25T14:38:30.481Z,1.53
2019-02-25T14:41:01.883Z,1.80
2019-02-25T14:43:37.091Z,1.80
2019-02-25T14:46:04.866Z,1.70
2019-02-25T14:48:35.287Z,1.60
2019-02-25T14:51:05.284Z,1.20
2019-02-25T14:53:34.715Z,1.63
2019-02-25T14:56:04.337Z,1.50
2019-02-25T14:58:36.170Z,1.70
2019-02-25T15:01:05.653Z,1.70
2019-02-25T15:03:35.092Z,1.70
2019-02-25T15:06:04.532Z,1.90
2019-02-25T15:08:33.981Z,1.70
2019-02-25T15:11:04.929Z,1.80
2019-02-25T15:13:35.427Z,1.60
2019-02-25T15:16:05.883Z,1.53
2019-02-25T15:18:35.340Z,1.47
2019-02-25T15:21:06.814Z,1.77
2019-02-25T15:23:37.408Z,2.30
2019-02-25T15:26:06.853Z,1.80
2019-02-25T15:28:36.878Z,1.93
2019-02-25T15:31:06.984Z,1.83
2019-02-25T15:33:38.022Z,2.37
2019-02-25T15:36:11.481Z,2.00
2019-02-25T15:38:41.347Z,1.37
2019-02-25T15:41:11.832Z,2.00
2019-02-25T15:43:41.359Z,1.90
2019-02-25T15:46:12.483Z,1.20
2019-02-25T15:48:43.554Z,1.52
2019-02-25T15:51:13.135Z,1.65
2019-02-25T15:53:46.227Z,1.37
2019-02-25T15:56:14.173Z,1.57
2019-02-25T15:58:43.790Z,1.70
2019-02-25T16:01:14.169Z,1.45
2019-02-25T16:03:43.619Z,2.12
2019-02-25T16:06:13.134Z,1.80
2019-02-25T16:08:42.652Z,2.30
2019-02-25T16:11:13.958Z,2.08
2019-02-25T16:13:43.396Z,2.45
2019-02-25T16:16:13.176Z,2.20
2019-02-25T16:18:42.705Z,1.87
2019-02-25T16:21:13.252Z,1.20
2019-02-25T16:23:43.687Z,1.60
2019-02-25T16:26:15.704Z,1.63
2019-02-25T16:28:45.262Z,1.63
2019-02-25T16:31:14.949Z,1.30
2019-02-25T16:33:44.432Z,1.17
2019-02-25T16:36:13.878Z,1.40
2019-02-25T16:38:43.618Z,1.10
2019-02-25T16:41:13.063Z,1.50
2019-02-25T16:43:42.512Z,1.50
2019-02-25T16:46:14.038Z,1.13
2019-02-25T16:48:43.578Z,1.10
2019-02-25T16:51:13.032Z,1.20
2019-02-25T16:53:43.291Z,0.97
2019-02-25T16:56:14.162Z,1.27
2019-02-25T16:58:43.761Z,1.30
2019-02-25T17:01:13.297Z,0.80
2019-02-25T17:03:43.827Z,0.80
2019-02-25T17:06:14.148Z,1.10
2019-02-25T17:08:43.700Z,1.03
2019-02-25T17:11:15.178Z,1.00
2019-02-25T17:13:44.398Z,0.80
2019-02-25T17:16:18.032Z,0.83
2019-02-25T17:18:46.377Z,1.20
2019-02-25T17:21:16.262Z,0.97
2019-02-25T17:23:45.976Z,0.90
2019-02-25T17:26:17.508Z,1.17
2019-02-25T17:28:46.876Z,0.80
2019-02-25T17:31:18.554Z,1.00
2019-02-25T17:33:49.248Z,0.97
2019-02-25T17:36:19.059Z,1.27
2019-02-25T17:38:50.121Z,1.27
2019-02-25T17:41:20.033Z,1.40
2019-02-25T17:43:49.540Z,1.33
2019-02-25T17:46:18.983Z,1.10
2019-02-25T17:48:48.423Z,1.40
2019-02-25T17:51:18.572Z,1.33
2019-02-25T17:53:50.494Z,1.37
2019-02-25T17:56:20.846Z,1.30
2019-02-25T17:58:51.378Z,2.10
2019-02-25T18:01:22.003Z,1.80
2019-02-25T18:03:52.066Z,1.80
2019-02-25T18:06:22.909Z,1.70
2019-02-25T18:08:53.544Z,1.70
2019-02-25T18:11:24.703Z,1.57
2019-02-25T18:13:55.721Z,1.60
2019-02-25T18:16:25.416Z,1.90
2019-02-25T18:18:55.492Z,1.57
2019-02-25T18:21:28.871Z,2.07
2019-02-25T18:23:57.278Z,1.80
2019-02-25T18:26:28.609Z,1.80
2019-02-25T18:28:58.164Z,1.90
2019-02-25T18:31:27.887Z,2.13
2019-02-25T18:33:57.330Z,1.90
2019-02-25T18:36:28.813Z,2.13
2019-02-25T18:38:58.208Z,2.17
2019-02-25T18:41:31.389Z,2.00
2019-02-25T18:43:58.892Z,2.20
2019-02-25T18:46:29.775Z,1.40
2019-02-25T18:48:59.533Z,1.80
2019-02-25T18:51:30.558Z,2.03
2019-02-25T18:54:02.046Z,1.23
2019-02-25T18:56:31.374Z,1.43
2019-02-25T18:59:08.850Z,1.23
2019-02-25T19:01:32.222Z,1.50
2019-02-25T19:04:01.649Z,1.47
2019-02-25T19:06:31.097Z,2.00
2019-02-25T19:09:00.535Z,1.30
2019-02-25T19:11:29.972Z,1.70
2019-02-25T19:14:01.835Z,1.90
2019-02-25T19:16:30.579Z,1.80
2019-02-25T19:19:03.539Z,1.57
2019-02-25T19:21:31.957Z,1.70
2019-02-25T19:24:03.561Z,2.13
2019-02-25T19:26:33.651Z,1.40
2019-02-25T19:29:03.081Z,1.33
2019-02-25T19:31:32.528Z,1.87
2019-02-25T19:34:02.140Z,2.10
2019-02-25T19:36:32.520Z,2.10
2019-02-25T19:39:07.280Z,2.07
2019-02-25T19:41:34.065Z,2.73
2019-02-25T19:44:04.194Z,2.50
2019-02-25T19:46:34.796Z,2.30
2019-02-25T19:49:04.240Z,2.33
2019-02-25T19:51:33.686Z,2.47
2019-02-25T19:54:05.185Z,3.27
2019-02-25T19:56:34.622Z,2.77
2019-02-25T19:59:05.665Z,2.67
2019-02-25T20:01:35.226Z,2.50
2019-02-25T20:04:07.051Z,2.67
2019-02-25T20:06:35.968Z,2.60
2019-02-25T20:09:07.672Z,3.13
2019-02-25T20:11:37.178Z,2.97
2019-02-25T20:14:06.632Z,2.63
2019-02-25T20:16:36.132Z,2.53
2019-02-25T20:19:06.810Z,2.90
2019-02-25T20:21:36.357Z,2.97
2019-02-25T20:24:07.769Z,2.83
2019-02-25T20:26:37.034Z,2.80
2019-02-25T20:29:08.371Z,2.80
2019-02-25T20:31:37.634Z,2.50
2019-02-25T20:34:07.072Z,2.60
2019-02-25T20:36:36.784Z,2.50
2019-02-25T20:39:06.671Z,2.50
2019-02-25T20:41:36.103Z,2.43
2019-02-25T20:44:05.811Z,2.60
2019-02-25T20:46:35.717Z,2.63
2019-02-25T20:49:05.237Z,2.60
2019-02-25T20:51:36.196Z,2.60
2019-02-25T20:54:05.872Z,2.13
2019-02-25T20:56:35.297Z,2.23
2019-02-25T20:59:06.123Z,2.43
2019-02-25T21:01:39.510Z,2.73
2019-02-25T21:04:08.874Z,2.57
2019-02-25T21:06:39.706Z,2.87
2019-02-25T21:09:11.101Z,3.10
2019-02-25T21:11:40.707Z,3.10
2019-02-25T21:14:10.140Z,3.17
2019-02-25T21:16:39.568Z,3.13
2019-02-25T21:19:10.773Z,2.50
2019-02-25T21:21:40.240Z,3.27
2019-02-25T21:24:11.763Z,3.07
2019-02-25T21:26:41.061Z,2.83
2019-02-25T21:29:10.659Z,3.33
2019-02-25T21:31:43.298Z,3.37
2019-02-25T21:34:15.344Z,3.60
2019-02-25T21:36:43.086Z,3.30
2019-02-25T21:39:14.767Z,3.60
2019-02-25T21:41:45.843Z,3.47
2019-02-25T21:44:18.842Z,3.43
2019-02-25T21:46:49.588Z,3.37
2019-02-25T21:49:17.789Z,4.00
2019-02-25T21:51:48.128Z,3.07
2019-02-25T21:54:17.644Z,3.70
2019-02-25T21:56:47.066Z,3.53
2019-02-25T21:59:17.537Z,4.07
2019-02-25T22:01:47.219Z,3.20
2019-02-25T22:04:17.990Z,4.13
2019-02-25T22:06:51.022Z,3.47
2019-02-25T22:09:32.731Z,3.97
2019-02-25T22:11:50.401Z,3.33
2019-02-25T22:14:21.586Z,4.20
2019-02-25T22:16:52.650Z,3.87
2019-02-25T22:19:22.156Z,3.37
2019-02-25T22:21:55.458Z,3.77
2019-02-25T22:24:27.144Z,3.80
2019-02-25T22:26:55.833Z,3.93
2019-02-25T22:29:25.082Z,3.57
2019-02-25T22:31:54.519Z,3.80
2019-02-25T22:34:25.346Z,3.57
2019-02-25T22:36:55.966Z,4.07
2019-02-25T22:39:27.388Z,4.00
2019-02-25T22:41:56.749Z,3.70
2019-02-25T22:44:27.034Z,3.57
2019-02-25T22:46:57.344Z,3.57
2019-02-25T22:49:28.839Z,3.83
2019-02-25T22:51:58.727Z,3.83
2019-02-25T22:54:29.126Z,3.70
2019-02-25T22:56:58.545Z,3.80
2019-02-25T22:59:27.982Z,3.80
2019-02-25T23:01:57.421Z,3.50
2019-02-25T23:04:26.865Z,3.43
2019-02-25T23:06:56.300Z,3.53
2019-02-25T23:09:25.908Z,3.53
2019-02-25T23:11:55.515Z,3.63
2019-02-25T23:14:25.206Z,3.73
2019-02-25T23:16:54.643Z,3.20
2019-02-25T23:19:24.080Z,3.70
2019-02-25T23:21:53.513Z,4.00
2019-02-25T23:24:26.035Z,3.73
2019-02-25T23:26:55.192Z,3.63
2019-02-25T23:29:28.276Z,3.97
2019-02-25T23:31:56.416Z,3.33
2019-02-25T23:34:25.859Z,3.77
2019-02-25T23:36:56.241Z,3.90
2019-02-25T23:39:25.806Z,4.23
2019-02-25T23:41:55.254Z,3.57
2019-02-25T23:44:24.760Z,3.63
2019-02-25T23:46:57.668Z,4.17
2019-02-25T23:49:27.576Z,3.40
2019-02-25T23:51:56.528Z,3.97
2019-02-25T23:54:27.916Z,3.80
2019-02-25T23:56:59.626Z,3.33
2019-02-25T23:59:28.459Z,3.53
